createdAt,value
2019-02-20T00:00:57.861Z,1013.11
2019-02-20T00:01:57.816Z,1013.12
2019-02-20T00:02:57.804Z,1013.08
2019-02-20T00:03:57.795Z,1013.05
2019-02-20T00:04:57.783Z,1013.09
2019-02-20T00:05:57.775Z,1013.06
2019-02-20T00:06:57.780Z,1013.05
2019-02-20T00:07:57.748Z,1013.10
2019-02-20T00:08:57.743Z,1013.12
2019-02-20T00:09:57.728Z,1013.08
2019-02-20T00:10:57.723Z,1013.17
2019-02-20T00:11:57.722Z,1013.18
2019-02-20T00:12:57.694Z,1013.18
2019-02-20T00:13:57.721Z,1013.18
2019-02-20T00:14:57.675Z,1013.24
2019-02-20T00:15:57.666Z,1013.25
2019-02-20T00:16:57.671Z,1013.21
2019-02-20T00:17:57.660Z,1013.21
2019-02-20T00:18:57.636Z,1013.22
2019-02-20T00:19:57.678Z,1013.28
2019-02-20T00:20:57.611Z,1013.28
2019-02-20T00:21:57.618Z,1013.29
2019-02-20T00:22:57.595Z,1013.29
2019-02-20T00:23:57.589Z,1013.25
2019-02-20T00:24:57.576Z,1013.25
2019-02-20T00:25:57.559Z,1013.19
2019-02-20T00:26:57.566Z,1013.26
2019-02-20T00:27:57.538Z,1013.27
2019-02-20T00:28:57.529Z,1013.23
2019-02-20T00:29:57.519Z,1013.16
2019-02-20T00:30:57.510Z,1013.19
2019-02-20T00:31:57.518Z,1013.17
2019-02-20T00:32:57.485Z,1013.22
2019-02-20T00:33:57.476Z,1013.27
2019-02-20T00:34:57.469Z,1013.26
2019-02-20T00:35:57.474Z,1013.26
2019-02-20T00:36:57.470Z,1013.22
2019-02-20T00:37:57.436Z,1013.23
2019-02-20T00:38:57.427Z,1013.27
2019-02-20T00:39:57.412Z,1013.26
2019-02-20T00:40:57.404Z,1013.23
2019-02-20T00:41:57.396Z,1013.25
2019-02-20T00:42:57.405Z,1013.27
2019-02-20T00:43:57.371Z,1013.27
2019-02-20T00:44:57.362Z,1013.31
2019-02-20T00:45:57.353Z,1013.29
2019-02-20T00:46:57.343Z,1013.30
2019-02-20T00:47:57.350Z,1013.28
2019-02-20T00:48:57.316Z,1013.32
2019-02-20T00:49:57.309Z,1013.28
2019-02-20T00:50:57.296Z,1013.31
2019-02-20T00:51:57.302Z,1013.33
2019-02-20T00:52:57.291Z,1013.37
2019-02-20T00:53:57.267Z,1013.36
2019-02-20T00:54:57.268Z,1013.37
2019-02-20T00:55:57.249Z,1013.34
2019-02-20T00:56:57.234Z,1013.35
2019-02-20T00:57:57.241Z,1013.37
2019-02-20T00:58:57.220Z,1013.34
2019-02-20T00:59:57.208Z,1013.31
2019-02-20T01:00:57.198Z,1013.27
2019-02-20T01:01:57.189Z,1013.33
2019-02-20T01:02:57.193Z,1013.34
2019-02-20T01:03:57.170Z,1013.35
2019-02-20T01:04:57.160Z,1013.36
2019-02-20T01:05:57.149Z,1013.34
2019-02-20T01:06:57.132Z,1013.30
2019-02-20T01:07:57.147Z,1013.40
2019-02-20T01:08:57.116Z,1013.37
2019-02-20T01:09:57.103Z,1013.42
2019-02-20T01:10:57.093Z,1013.33
2019-02-20T01:11:57.084Z,1013.39
2019-02-20T01:12:57.090Z,1013.36
2019-02-20T01:13:57.060Z,1013.35
2019-02-20T01:14:57.076Z,1013.32
2019-02-20T01:15:57.039Z,1013.29
2019-02-20T01:16:57.031Z,1013.33
2019-02-20T01:17:57.033Z,1013.26
2019-02-20T01:18:57.005Z,1013.31
2019-02-20T01:19:57.000Z,1013.38
2019-02-20T01:20:56.983Z,1013.38
2019-02-20T01:21:56.978Z,1013.45
2019-02-20T01:22:59.850Z,1013.47
2019-02-20T01:23:56.946Z,1013.44
2019-02-20T01:24:56.953Z,1013.45
2019-02-20T01:25:56.936Z,1013.46
2019-02-20T01:26:56.920Z,1013.45
2019-02-20T01:27:56.927Z,1013.45
2019-02-20T01:28:56.895Z,1013.39
2019-02-20T01:29:56.908Z,1013.41
2019-02-20T01:30:56.883Z,1013.35
2019-02-20T01:31:56.869Z,1013.40
2019-02-20T01:32:56.926Z,1013.38
2019-02-20T01:33:56.851Z,1013.36
2019-02-20T01:34:56.837Z,1013.34
2019-02-20T01:35:56.822Z,1013.33
2019-02-20T01:36:56.818Z,1013.31
2019-02-20T01:37:56.939Z,1013.31
2019-02-20T01:38:56.795Z,1013.35
2019-02-20T01:39:56.789Z,1013.32
2019-02-20T01:40:56.780Z,1013.29
2019-02-20T01:41:56.762Z,1013.26
2019-02-20T01:42:56.754Z,1013.28
2019-02-20T01:43:56.775Z,1013.24
2019-02-20T01:44:56.733Z,1013.24
2019-02-20T01:45:56.727Z,1013.27
2019-02-20T01:46:56.713Z,1013.22
2019-02-20T01:47:56.699Z,1013.21
2019-02-20T01:48:56.727Z,1013.21
2019-02-20T01:49:56.686Z,1013.26
2019-02-20T01:50:56.674Z,1013.30
2019-02-20T01:51:56.661Z,1013.22
2019-02-20T01:52:56.651Z,1013.28
2019-02-20T01:53:56.647Z,1013.26
2019-02-20T01:54:56.647Z,1013.30
2019-02-20T01:55:56.618Z,1013.28
2019-02-20T01:56:57.272Z,1013.29
2019-02-20T01:57:56.602Z,1013.31
2019-02-20T01:58:56.592Z,1013.34
2019-02-20T01:59:56.597Z,1013.35
2019-02-20T02:00:56.572Z,1013.41
2019-02-20T02:01:56.561Z,1013.37
2019-02-20T02:02:56.553Z,1013.38
2019-02-20T02:03:56.541Z,1013.42
2019-02-20T02:04:56.553Z,1013.41
2019-02-20T02:05:56.533Z,1013.42
2019-02-20T02:06:56.519Z,1013.42
2019-02-20T02:07:56.497Z,1013.40
2019-02-20T02:08:56.486Z,1013.36
2019-02-20T02:09:56.473Z,1013.37
2019-02-20T02:10:56.480Z,1013.37
2019-02-20T02:11:56.466Z,1013.35
2019-02-20T02:12:56.449Z,1013.40
2019-02-20T02:13:56.449Z,1013.42
2019-02-20T02:14:56.426Z,1013.41
2019-02-20T02:15:56.442Z,1013.41
2019-02-20T02:16:56.408Z,1013.38
2019-02-20T02:17:56.397Z,1013.38
2019-02-20T02:18:56.388Z,1013.40
2019-02-20T02:19:56.373Z,1013.34
2019-02-20T02:20:56.368Z,1013.32
2019-02-20T02:21:56.369Z,1013.38
2019-02-20T02:22:56.341Z,1013.35
2019-02-20T02:23:56.334Z,1013.34
2019-02-20T02:24:56.324Z,1013.33
2019-02-20T02:25:56.329Z,1013.35
2019-02-20T02:26:56.324Z,1013.36
2019-02-20T02:27:56.296Z,1013.29
2019-02-20T02:28:56.286Z,1013.34
2019-02-20T02:29:56.276Z,1013.31
2019-02-20T02:30:56.267Z,1013.33
2019-02-20T02:31:56.257Z,1013.35
2019-02-20T02:32:57.359Z,1013.35
2019-02-20T02:33:56.231Z,1013.37
2019-02-20T02:34:56.222Z,1013.40
2019-02-20T02:35:56.206Z,1013.40
2019-02-20T02:36:56.202Z,1013.33
2019-02-20T02:37:56.212Z,1013.42
2019-02-20T02:38:56.180Z,1013.35
2019-02-20T02:39:56.165Z,1013.34
2019-02-20T02:40:56.165Z,1013.34
2019-02-20T02:41:56.196Z,1013.39
2019-02-20T02:42:56.173Z,1013.34
2019-02-20T02:43:56.128Z,1013.36
2019-02-20T02:44:56.123Z,1013.35
2019-02-20T02:45:56.106Z,1013.36
2019-02-20T02:46:56.100Z,1013.41
2019-02-20T02:47:56.082Z,1013.41
2019-02-20T02:48:56.085Z,1013.41
2019-02-20T02:49:56.065Z,1013.41
2019-02-20T02:50:56.055Z,1013.45
2019-02-20T02:51:56.044Z,1013.41
2019-02-20T02:52:56.035Z,1013.39
2019-02-20T02:53:56.036Z,1013.48
2019-02-20T02:54:56.011Z,1013.46
2019-02-20T02:55:56.019Z,1013.48
2019-02-20T02:56:56.010Z,1013.52
2019-02-20T02:57:55.981Z,1013.52
2019-02-20T02:58:55.982Z,1013.51
2019-02-20T02:59:55.966Z,1013.48
2019-02-20T03:00:55.955Z,1013.49
2019-02-20T03:01:55.941Z,1013.42
2019-02-20T03:02:55.929Z,1013.46
2019-02-20T03:03:55.935Z,1013.43
2019-02-20T03:04:55.911Z,1013.43
2019-02-20T03:05:55.905Z,1013.46
2019-02-20T03:06:55.888Z,1013.50
2019-02-20T03:07:55.877Z,1013.51
2019-02-20T03:08:55.876Z,1013.52
2019-02-20T03:09:55.855Z,1013.45
2019-02-20T03:10:55.849Z,1013.53
2019-02-20T03:11:55.837Z,1013.51
2019-02-20T03:12:55.826Z,1013.54
2019-02-20T03:13:55.829Z,1013.45
2019-02-20T03:14:55.807Z,1013.47
2019-02-20T03:15:55.794Z,1013.42
2019-02-20T03:16:55.782Z,1013.44
2019-02-20T03:17:55.770Z,1013.44
2019-02-20T03:18:55.781Z,1013.48
2019-02-20T03:19:55.755Z,1013.47
2019-02-20T03:20:55.745Z,1013.49
2019-02-20T03:21:55.740Z,1013.49
2019-02-20T03:22:55.723Z,1013.49
2019-02-20T03:23:55.791Z,1013.47
2019-02-20T03:24:55.702Z,1013.54
2019-02-20T03:25:55.695Z,1013.57
2019-02-20T03:26:55.680Z,1013.55
2019-02-20T03:27:55.678Z,1013.58
2019-02-20T03:28:55.662Z,1013.57
2019-02-20T03:29:55.665Z,1013.59
2019-02-20T03:30:55.654Z,1013.61
2019-02-20T03:31:55.626Z,1013.54
2019-02-20T03:32:55.629Z,1013.56
2019-02-20T03:33:55.613Z,1013.64
2019-02-20T03:34:55.631Z,1013.54
2019-02-20T03:35:55.587Z,1013.60
2019-02-20T03:36:55.572Z,1013.63
2019-02-20T03:37:55.566Z,1013.73
2019-02-20T03:38:55.562Z,1013.69
2019-02-20T03:39:55.546Z,1013.68
2019-02-20T03:40:55.546Z,1013.70
2019-02-20T03:41:55.528Z,1013.71
2019-02-20T03:42:55.514Z,1013.73
2019-02-20T03:43:55.525Z,1013.73
2019-02-20T03:44:55.492Z,1013.78
2019-02-20T03:45:55.486Z,1013.77
2019-02-20T03:46:55.472Z,1013.85
2019-02-20T03:47:55.467Z,1013.84
2019-02-20T03:48:55.470Z,1013.84
2019-02-20T03:49:55.444Z,1013.84
2019-02-20T03:50:55.430Z,1013.79
2019-02-20T03:51:55.419Z,1013.83
2019-02-20T03:52:55.409Z,1013.82
2019-02-20T03:53:55.412Z,1013.85
2019-02-20T03:54:55.386Z,1013.86
2019-02-20T03:55:55.381Z,1013.84
2019-02-20T03:56:55.379Z,1013.87
2019-02-20T03:57:55.362Z,1013.87
2019-02-20T03:58:55.365Z,1013.85
2019-02-20T03:59:55.338Z,1013.89
2019-02-20T04:00:55.321Z,1013.81
2019-02-20T04:01:55.321Z,1013.80
2019-02-20T04:02:55.308Z,1013.86
2019-02-20T04:03:55.315Z,1013.84
2019-02-20T04:04:55.290Z,1013.85
2019-02-20T04:05:55.359Z,1013.88
2019-02-20T04:06:55.262Z,1013.88
2019-02-20T04:07:55.252Z,1013.83
2019-02-20T04:08:55.260Z,1013.81
2019-02-20T04:09:55.231Z,1013.86
2019-02-20T04:10:55.220Z,1013.82
2019-02-20T04:11:55.214Z,1013.81
2019-02-20T04:12:55.197Z,1013.83
2019-02-20T04:13:55.204Z,1013.83
2019-02-20T04:14:55.180Z,1013.81
2019-02-20T04:15:55.172Z,1013.84
2019-02-20T04:16:55.161Z,1013.84
2019-02-20T04:17:55.152Z,1013.94
2019-02-20T04:18:55.155Z,1013.94
2019-02-20T04:19:55.131Z,1013.94
2019-02-20T04:20:55.117Z,1013.87
2019-02-20T04:21:55.109Z,1013.90
2019-02-20T04:22:55.100Z,1013.88
2019-02-20T04:24:02.400Z,1013.87
2019-02-20T04:24:56.080Z,1013.94
2019-02-20T04:25:55.081Z,1013.88
2019-02-20T04:26:55.056Z,1013.81
2019-02-20T04:27:55.047Z,1013.88
2019-02-20T04:28:55.053Z,1013.84
2019-02-20T04:29:55.024Z,1013.86
2019-02-20T04:30:55.019Z,1013.84
2019-02-20T04:31:55.008Z,1013.91
2019-02-20T04:32:55.001Z,1013.87
2019-02-20T04:33:54.999Z,1013.92
2019-02-20T04:34:54.973Z,1013.91
2019-02-20T04:35:54.964Z,1013.96
2019-02-20T04:36:54.961Z,1013.95
2019-02-20T04:37:54.946Z,1013.95
2019-02-20T04:38:54.973Z,1013.94
2019-02-20T04:39:54.924Z,1013.98
2019-02-20T04:40:54.928Z,1013.94
2019-02-20T04:41:54.907Z,1013.92
2019-02-20T04:42:54.900Z,1013.89
2019-02-20T04:43:54.903Z,1013.91
2019-02-20T04:44:54.873Z,1013.93
2019-02-20T04:45:54.869Z,1013.93
2019-02-20T04:46:54.850Z,1013.94
2019-02-20T04:47:54.841Z,1013.96
2019-02-20T04:48:54.850Z,1013.98
2019-02-20T04:49:54.829Z,1014.02
2019-02-20T04:50:54.816Z,1014.01
2019-02-20T04:51:54.802Z,1013.95
2019-02-20T04:52:54.787Z,1014.00
2019-02-20T04:53:54.792Z,1013.99
2019-02-20T04:54:54.767Z,1014.09
2019-02-20T04:55:54.760Z,1014.07
2019-02-20T04:56:54.756Z,1014.04
2019-02-20T04:57:54.742Z,1014.05
2019-02-20T04:58:54.753Z,1014.04
2019-02-20T04:59:54.720Z,1014.00
2019-02-20T05:00:54.708Z,1014.03
2019-02-20T05:01:54.695Z,1013.95
2019-02-20T05:02:54.690Z,1013.95
2019-02-20T05:03:54.693Z,1013.95
2019-02-20T05:04:54.666Z,1013.93
2019-02-20T05:05:54.659Z,1013.92
2019-02-20T05:06:54.646Z,1013.99
2019-02-20T05:07:54.641Z,1013.92
2019-02-20T05:08:54.651Z,1013.97
2019-02-20T05:09:54.615Z,1014.01
2019-02-20T05:10:54.607Z,1014.03
2019-02-20T05:11:54.599Z,1014.03
2019-02-20T05:12:54.585Z,1014.01
2019-02-20T05:13:54.572Z,1014.01
2019-02-20T05:14:54.581Z,1014.02
2019-02-20T05:15:54.557Z,1014.01
2019-02-20T05:16:54.549Z,1013.97
2019-02-20T05:17:54.534Z,1013.99
2019-02-20T05:18:54.523Z,1014.02
2019-02-20T05:19:54.528Z,1013.99
2019-02-20T05:20:54.508Z,1014.04
2019-02-20T05:21:54.490Z,1014.04
2019-02-20T05:22:54.483Z,1014.06
2019-02-20T05:23:54.475Z,1014.07
2019-02-20T05:24:54.480Z,1014.06
2019-02-20T05:25:54.464Z,1014.05
2019-02-20T05:26:54.498Z,1014.01
2019-02-20T05:27:54.430Z,1014.07
2019-02-20T05:28:54.417Z,1014.09
2019-02-20T05:29:54.426Z,1014.06
2019-02-20T05:30:54.401Z,1014.07
2019-02-20T05:31:54.392Z,1014.03
2019-02-20T05:32:54.379Z,1014.10
2019-02-20T05:33:54.373Z,1014.10
2019-02-20T05:34:54.371Z,1014.10
2019-02-20T05:35:54.349Z,1014.05
2019-02-20T05:36:54.333Z,1014.08
2019-02-20T05:37:54.329Z,1014.12
2019-02-20T05:38:54.325Z,1014.10
2019-02-20T05:39:54.322Z,1014.10
2019-02-20T05:40:54.303Z,1014.16
2019-02-20T05:41:54.294Z,1014.11
2019-02-20T05:42:54.277Z,1014.18
2019-02-20T05:43:54.263Z,1014.20
2019-02-20T05:44:54.276Z,1014.16
2019-02-20T05:45:54.249Z,1014.14
2019-02-20T05:46:54.236Z,1014.17
2019-02-20T05:47:54.223Z,1014.14
2019-02-20T05:48:54.217Z,1014.19
2019-02-20T05:49:54.217Z,1014.23
2019-02-20T05:50:54.191Z,1014.20
2019-02-20T05:51:54.189Z,1014.20
2019-02-20T05:52:54.179Z,1014.22
2019-02-20T05:53:54.155Z,1014.25
2019-02-20T05:54:54.163Z,1014.27
2019-02-20T05:55:54.142Z,1014.37
2019-02-20T05:56:54.132Z,1014.37
2019-02-20T05:57:54.118Z,1014.35
2019-02-20T05:58:54.109Z,1014.40
2019-02-20T05:59:54.114Z,1014.32
2019-02-20T06:00:54.089Z,1014.40
2019-02-20T06:01:54.075Z,1014.38
2019-02-20T06:02:54.071Z,1014.35
2019-02-20T06:03:54.072Z,1014.37
2019-02-20T06:04:54.083Z,1014.31
2019-02-20T06:05:54.040Z,1014.37
2019-02-20T06:06:54.026Z,1014.34
2019-02-20T06:07:54.016Z,1014.34
2019-02-20T06:08:54.010Z,1014.39
2019-02-20T06:09:54.014Z,1014.36
2019-02-20T06:10:53.985Z,1014.37
2019-02-20T06:11:53.974Z,1014.37
2019-02-20T06:12:53.965Z,1014.44
2019-02-20T06:13:53.966Z,1014.35
2019-02-20T06:14:53.971Z,1014.36
2019-02-20T06:15:53.936Z,1014.35
2019-02-20T06:16:53.924Z,1014.35
2019-02-20T06:17:53.915Z,1014.37
2019-02-20T06:18:53.908Z,1014.36
2019-02-20T06:19:53.913Z,1014.36
2019-02-20T06:20:53.893Z,1014.36
2019-02-20T06:21:53.876Z,1014.36
2019-02-20T06:22:53.866Z,1014.37
2019-02-20T06:23:53.853Z,1014.42
2019-02-20T06:24:53.869Z,1014.39
2019-02-20T06:25:53.834Z,1014.41
2019-02-20T06:26:53.821Z,1014.48
2019-02-20T06:27:53.809Z,1014.48
2019-02-20T06:28:53.804Z,1014.50
2019-02-20T06:29:53.817Z,1014.52
2019-02-20T06:30:53.792Z,1014.49
2019-02-20T06:31:53.769Z,1014.56
2019-02-20T06:32:53.762Z,1014.55
2019-02-20T06:33:53.749Z,1014.54
2019-02-20T06:34:53.753Z,1014.52
2019-02-20T06:35:53.729Z,1014.50
2019-02-20T06:36:53.761Z,1014.52
2019-02-20T06:37:53.708Z,1014.51
2019-02-20T06:38:53.703Z,1014.53
2019-02-20T06:39:53.703Z,1014.58
2019-02-20T06:40:53.673Z,1014.62
2019-02-20T06:41:53.668Z,1014.56
2019-02-20T06:42:53.662Z,1014.59
2019-02-20T06:43:53.646Z,1014.59
2019-02-20T06:44:53.653Z,1014.67
2019-02-20T06:45:53.627Z,1014.63
2019-02-20T06:46:53.618Z,1014.68
2019-02-20T06:47:53.619Z,1014.67
2019-02-20T06:48:53.599Z,1014.64
2019-02-20T06:49:53.634Z,1014.66
2019-02-20T06:50:53.582Z,1014.67
2019-02-20T06:51:53.569Z,1014.65
2019-02-20T06:52:53.549Z,1014.67
2019-02-20T06:53:53.553Z,1014.66
2019-02-20T06:54:54.357Z,1014.72
2019-02-20T06:55:53.519Z,1014.69
2019-02-20T06:56:53.512Z,1014.71
2019-02-20T06:57:53.500Z,1014.73
2019-02-20T06:58:53.503Z,1014.79
2019-02-20T06:59:53.518Z,1014.73
2019-02-20T07:00:53.478Z,1014.74
2019-02-20T07:01:53.467Z,1014.77
2019-02-20T07:02:53.454Z,1014.73
2019-02-20T07:03:53.468Z,1014.78
2019-02-20T07:04:53.470Z,1014.74
2019-02-20T07:05:53.428Z,1014.76
2019-02-20T07:06:53.414Z,1014.75
2019-02-20T07:07:53.402Z,1014.77
2019-02-20T07:08:53.393Z,1014.81
2019-02-20T07:09:53.386Z,1014.81
2019-02-20T07:10:53.397Z,1014.82
2019-02-20T07:11:53.363Z,1014.81
2019-02-20T07:12:53.391Z,1014.77
2019-02-20T07:13:53.336Z,1014.88
2019-02-20T07:14:53.351Z,1014.94
2019-02-20T07:15:53.340Z,1015.01
2019-02-20T07:16:53.311Z,1015.06
2019-02-20T07:17:53.306Z,1015.10
2019-02-20T07:18:53.291Z,1015.04
2019-02-20T07:19:53.278Z,1015.11
2019-02-20T07:20:53.285Z,1015.13
2019-02-20T07:21:53.256Z,1015.16
2019-02-20T07:22:53.247Z,1015.13
2019-02-20T07:23:53.235Z,1015.16
2019-02-20T07:24:53.230Z,1015.26
2019-02-20T07:25:53.284Z,1015.20
2019-02-20T07:26:53.236Z,1015.24
2019-02-20T07:27:53.214Z,1015.20
2019-02-20T07:28:53.193Z,1015.20
2019-02-20T07:29:53.175Z,1015.23
2019-02-20T07:30:53.184Z,1015.18
2019-02-20T07:31:53.165Z,1015.27
2019-02-20T07:32:53.194Z,1015.22
2019-02-20T07:33:53.139Z,1015.26
2019-02-20T07:34:53.140Z,1015.28
2019-02-20T07:35:53.129Z,1015.30
2019-02-20T07:36:53.114Z,1015.36
2019-02-20T07:37:53.098Z,1015.38
2019-02-20T07:38:53.113Z,1015.43
2019-02-20T07:39:53.076Z,1015.43
2019-02-20T07:40:53.090Z,1015.47
2019-02-20T07:41:53.067Z,1015.48
2019-02-20T07:42:53.046Z,1015.50
2019-02-20T07:43:53.057Z,1015.42
2019-02-20T07:44:53.029Z,1015.46
2019-02-20T07:45:53.045Z,1015.44
2019-02-20T07:46:53.030Z,1015.44
2019-02-20T07:47:52.994Z,1015.50
2019-02-20T07:48:52.990Z,1015.48
2019-02-20T07:49:52.971Z,1015.52
2019-02-20T07:50:52.993Z,1015.56
2019-02-20T07:51:52.951Z,1015.54
2019-02-20T07:52:52.954Z,1015.54
2019-02-20T07:53:52.952Z,1015.55
2019-02-20T07:54:52.915Z,1015.52
2019-02-20T07:55:52.937Z,1015.59
2019-02-20T07:56:52.903Z,1015.57
2019-02-20T07:57:52.889Z,1015.58
2019-02-20T07:58:52.902Z,1015.63
2019-02-20T07:59:52.935Z,1015.62
2019-02-20T08:00:52.942Z,1015.61
2019-02-20T08:01:52.867Z,1015.58
2019-02-20T08:02:52.869Z,1015.67
2019-02-20T08:03:52.825Z,1015.64
2019-02-20T08:04:52.873Z,1015.68
2019-02-20T08:05:52.868Z,1015.66
2019-02-20T08:06:52.849Z,1015.72
2019-02-20T08:07:52.792Z,1015.72
2019-02-20T08:08:52.774Z,1015.77
2019-02-20T08:09:52.769Z,1015.77
2019-02-20T08:10:52.800Z,1015.80
2019-02-20T08:11:52.737Z,1015.82
2019-02-20T08:12:52.738Z,1015.80
2019-02-20T08:13:52.719Z,1015.79
2019-02-20T08:14:52.707Z,1015.81
2019-02-20T08:15:52.723Z,1015.79
2019-02-20T08:16:52.957Z,1015.77
2019-02-20T08:17:52.689Z,1015.71
2019-02-20T08:18:52.675Z,1015.70
2019-02-20T08:19:52.656Z,1015.75
2019-02-20T08:20:52.660Z,1015.71
2019-02-20T08:21:52.644Z,1015.76
2019-02-20T08:22:52.633Z,1015.77
2019-02-20T08:23:52.612Z,1015.75
2019-02-20T08:24:52.612Z,1015.81
2019-02-20T08:25:52.640Z,1015.84
2019-02-20T08:26:52.589Z,1015.83
2019-02-20T08:27:52.585Z,1015.83
2019-02-20T08:28:52.563Z,1015.90
2019-02-20T08:29:52.557Z,1015.88
2019-02-20T08:30:52.560Z,1015.87
2019-02-20T08:31:53.942Z,1015.86
2019-02-20T08:32:52.524Z,1015.82
2019-02-20T08:33:52.539Z,1015.86
2019-02-20T08:34:52.507Z,1015.89
2019-02-20T08:35:52.563Z,1015.89
2019-02-20T08:36:52.490Z,1015.88
2019-02-20T08:37:52.474Z,1015.96
2019-02-20T08:38:52.499Z,1015.97
2019-02-20T08:39:52.449Z,1015.90
2019-02-20T08:40:52.454Z,1015.88
2019-02-20T08:41:52.427Z,1016.06
2019-02-20T08:42:52.426Z,1016.07
2019-02-20T08:43:52.433Z,1016.04
2019-02-20T08:44:52.401Z,1016.12
2019-02-20T08:45:52.440Z,1016.02
2019-02-20T08:46:52.382Z,1016.03
2019-02-20T08:47:52.392Z,1016.08
2019-02-20T08:48:52.394Z,1016.08
2019-02-20T08:49:54.377Z,1016.08
2019-02-20T08:50:52.352Z,1016.14
2019-02-20T08:51:52.367Z,1016.17
2019-02-20T08:52:52.314Z,1016.20
2019-02-20T08:53:52.313Z,1016.11
2019-02-20T08:54:52.312Z,1016.21
2019-02-20T08:55:52.308Z,1016.18
2019-02-20T08:56:52.293Z,1016.26
2019-02-20T08:57:52.267Z,1016.29
2019-02-20T08:58:52.253Z,1016.29
2019-02-20T08:59:52.244Z,1016.19
2019-02-20T09:00:52.230Z,1016.27
2019-02-20T09:01:52.282Z,1016.26
2019-02-20T09:02:52.229Z,1016.24
2019-02-20T09:03:52.202Z,1016.31
2019-02-20T09:04:52.193Z,1016.27
2019-02-20T09:05:52.187Z,1016.31
2019-02-20T09:06:52.184Z,1016.33
2019-02-20T09:07:52.166Z,1016.35
2019-02-20T09:08:52.146Z,1016.47
2019-02-20T09:09:52.140Z,1016.47
2019-02-20T09:10:52.136Z,1016.49
2019-02-20T09:11:52.130Z,1016.47
2019-02-20T09:12:52.121Z,1016.45
2019-02-20T09:13:52.101Z,1016.45
2019-02-20T09:14:52.086Z,1016.46
2019-02-20T09:15:52.073Z,1016.45
2019-02-20T09:16:52.085Z,1016.55
2019-02-20T09:17:52.089Z,1016.52
2019-02-20T09:18:52.058Z,1016.56
2019-02-20T09:19:52.061Z,1016.53
2019-02-20T09:20:52.051Z,1016.49
2019-02-20T09:21:52.029Z,1016.56
2019-02-20T09:22:52.003Z,1016.59
2019-02-20T09:23:52.020Z,1016.53
2019-02-20T09:24:51.985Z,1016.61
2019-02-20T09:25:51.980Z,1016.57
2019-02-20T09:26:51.977Z,1016.61
2019-02-20T09:27:51.965Z,1016.56
2019-02-20T09:28:51.957Z,1016.57
2019-02-20T09:29:51.930Z,1016.57
2019-02-20T09:30:51.947Z,1016.53
2019-02-20T09:31:51.922Z,1016.59
2019-02-20T09:32:51.895Z,1016.57
2019-02-20T09:33:51.892Z,1016.57
2019-02-20T09:34:51.913Z,1016.62
2019-02-20T09:35:51.916Z,1016.60
2019-02-20T09:36:51.878Z,1016.59
2019-02-20T09:37:51.871Z,1016.63
2019-02-20T09:38:51.840Z,1016.61
2019-02-20T09:39:51.827Z,1016.73
2019-02-20T09:40:51.818Z,1016.68
2019-02-20T09:41:51.824Z,1016.66
2019-02-20T09:42:51.807Z,1016.66
2019-02-20T09:43:51.787Z,1016.65
2019-02-20T09:44:51.780Z,1016.71
2019-02-20T09:45:51.765Z,1016.61
2019-02-20T09:46:51.770Z,1016.70
2019-02-20T09:47:51.755Z,1016.69
2019-02-20T09:48:51.731Z,1016.63
2019-02-20T09:49:51.747Z,1016.73
2019-02-20T09:50:51.721Z,1016.73
2019-02-20T09:51:51.776Z,1016.75
2019-02-20T09:52:52.837Z,1016.74
2019-02-20T09:53:51.681Z,1016.76
2019-02-20T09:54:51.676Z,1016.77
2019-02-20T09:55:52.068Z,1016.77
2019-02-20T09:56:51.677Z,1016.70
2019-02-20T09:57:51.652Z,1016.78
2019-02-20T09:58:51.638Z,1016.81
2019-02-20T09:59:51.638Z,1016.82
2019-02-20T10:00:51.613Z,1016.76
2019-02-20T10:01:51.638Z,1016.82
2019-02-20T10:02:51.597Z,1016.82
2019-02-20T10:03:51.571Z,1016.86
2019-02-20T10:04:51.574Z,1016.82
2019-02-20T10:05:51.555Z,1016.84
2019-02-20T10:06:51.558Z,1016.85
2019-02-20T10:07:51.533Z,1016.85
2019-02-20T10:08:51.527Z,1016.79
2019-02-20T10:09:51.523Z,1016.75
2019-02-20T10:10:51.503Z,1016.74
2019-02-20T10:11:51.507Z,1016.72
2019-02-20T10:12:51.487Z,1016.70
2019-02-20T10:13:51.473Z,1016.72
2019-02-20T10:14:51.460Z,1016.81
2019-02-20T10:15:51.447Z,1016.79
2019-02-20T10:16:51.459Z,1016.76
2019-02-20T10:17:51.433Z,1016.79
2019-02-20T10:18:51.423Z,1016.84
2019-02-20T10:19:51.413Z,1016.83
2019-02-20T10:20:51.413Z,1016.93
2019-02-20T10:21:51.405Z,1016.94
2019-02-20T10:22:51.394Z,1016.94
2019-02-20T10:23:51.413Z,1017.02
2019-02-20T10:24:51.374Z,1016.99
2019-02-20T10:26:00.318Z,1016.98
2019-02-20T10:27:00.450Z,1017.04
2019-02-20T10:27:52.376Z,1016.94
2019-02-20T10:28:51.317Z,1017.00
2019-02-20T10:29:51.391Z,1016.98
2019-02-20T10:30:51.305Z,1016.95
2019-02-20T10:31:51.319Z,1017.01
2019-02-20T10:32:51.278Z,1017.01
2019-02-20T10:33:51.287Z,1016.93
2019-02-20T10:34:51.271Z,1016.98
2019-02-20T10:35:51.244Z,1017.00
2019-02-20T10:36:51.258Z,1017.02
2019-02-20T10:37:52.942Z,1017.01
2019-02-20T10:38:51.214Z,1016.98
2019-02-20T10:39:51.212Z,1016.98
2019-02-20T10:40:51.195Z,1017.01
2019-02-20T10:41:51.197Z,1017.04
2019-02-20T10:42:51.175Z,1017.08
2019-02-20T10:43:51.191Z,1017.06
2019-02-20T10:44:51.198Z,1017.06
2019-02-20T10:45:51.196Z,1017.06
2019-02-20T10:46:51.226Z,1017.08
2019-02-20T10:47:51.154Z,1017.05
2019-02-20T10:48:51.139Z,1017.05
2019-02-20T10:49:51.095Z,1017.06
2019-02-20T10:50:51.085Z,1017.06
2019-02-20T10:51:51.095Z,1017.01
2019-02-20T10:52:51.064Z,1017.02
2019-02-20T10:53:51.177Z,1017.02
2019-02-20T10:54:57.527Z,1017.00
2019-02-20T10:55:52.064Z,1016.99
2019-02-20T10:56:51.049Z,1016.98
2019-02-20T10:57:51.029Z,1017.00
2019-02-20T10:58:51.037Z,1017.02
2019-02-20T10:59:50.998Z,1016.99
2019-02-20T11:00:50.994Z,1016.92
2019-02-20T11:01:50.983Z,1016.93
2019-02-20T11:02:51.010Z,1016.96
2019-02-20T11:03:50.955Z,1016.96
2019-02-20T11:04:50.947Z,1016.97
2019-02-20T11:05:50.935Z,1016.98
2019-02-20T11:06:50.979Z,1016.93
2019-02-20T11:07:50.919Z,1016.99
2019-02-20T11:08:50.916Z,1016.92
2019-02-20T11:09:50.890Z,1016.99
2019-02-20T11:10:50.881Z,1016.95
2019-02-20T11:11:50.895Z,1016.96
2019-02-20T11:12:50.864Z,1017.01
2019-02-20T11:13:50.853Z,1016.91
2019-02-20T11:14:50.922Z,1016.96
2019-02-20T11:15:50.858Z,1016.96
2019-02-20T11:16:50.843Z,1016.95
2019-02-20T11:17:50.816Z,1016.94
2019-02-20T11:18:50.802Z,1016.98
2019-02-20T11:19:50.811Z,1016.99
2019-02-20T11:20:50.781Z,1017.01
2019-02-20T11:21:50.797Z,1017.00
2019-02-20T11:22:50.765Z,1017.01
2019-02-20T11:23:50.779Z,1016.97
2019-02-20T11:24:50.838Z,1017.00
2019-02-20T11:25:50.740Z,1016.97
2019-02-20T11:26:54.976Z,1016.98
2019-02-20T11:27:50.706Z,1016.93
2019-02-20T11:28:50.697Z,1016.94
2019-02-20T11:29:50.686Z,1016.95
2019-02-20T11:30:50.683Z,1016.95
2019-02-20T11:31:50.681Z,1016.95
2019-02-20T11:32:50.653Z,1016.99
2019-02-20T11:33:50.650Z,1016.97
2019-02-20T11:34:50.658Z,1016.98
2019-02-20T11:35:50.624Z,1016.94
2019-02-20T11:36:50.663Z,1016.93
2019-02-20T11:37:50.609Z,1016.96
2019-02-20T11:38:50.587Z,1016.94
2019-02-20T11:39:50.594Z,1016.95
2019-02-20T11:40:50.581Z,1016.91
2019-02-20T11:41:50.560Z,1016.86
2019-02-20T11:42:50.571Z,1016.92
2019-02-20T11:43:50.536Z,1016.87
2019-02-20T11:44:50.533Z,1016.90
2019-02-20T11:45:50.519Z,1016.88
2019-02-20T11:46:50.514Z,1016.90
2019-02-20T11:47:50.509Z,1016.87
2019-02-20T11:48:50.490Z,1016.87
2019-02-20T11:49:50.477Z,1016.86
2019-02-20T11:50:50.462Z,1016.96
2019-02-20T11:51:50.459Z,1016.92
2019-02-20T11:52:50.466Z,1016.92
2019-02-20T11:53:50.438Z,1016.94
2019-02-20T11:54:50.436Z,1016.96
2019-02-20T11:55:50.422Z,1016.91
2019-02-20T11:56:50.408Z,1016.92
2019-02-20T11:57:50.415Z,1016.84
2019-02-20T11:58:50.388Z,1016.88
2019-02-20T11:59:50.376Z,1016.92
2019-02-20T12:00:50.386Z,1016.85
2019-02-20T12:01:50.368Z,1016.81
2019-02-20T12:02:50.383Z,1016.85
2019-02-20T12:03:50.335Z,1016.83
2019-02-20T12:04:50.338Z,1016.84
2019-02-20T12:05:50.314Z,1016.85